Terminal Aerodrome Forecast
Issued by NWS

Home | Current Version | Previous Version | Text Only | Print | Product List | Glossary On
Versions: 1 2 3 4 5 6 7 8 9 10 11 12 13 14 15 16 17 18 19 20 21 22 23 24
587
FTUS42 KGSP 170540
TAFHKY
TAF
KHKY 170540Z 1706/1806 33004KT P6SM VCSH OVC045
     FM170700 33004KT P6SM -SN OVC040
     FM170900 34005KT P6SM OVC021
      TEMPO 1709/1712 1SM -SN OVC015
     FM171200 35005KT P6SM OVC008
      TEMPO 1712/1715 3/4SM -SN OVC001
     FM171500 36007KT 1 1/2SM -SN OVC012
     FM171600 36007KT P6SM OVC014 PROB30 1716/1718 3/4SM -SN OVC008
     FM172100 34010KT P6SM BKN045
     FM180300 32007KT P6SM SKC=

USA.gov is the U.S. government's official web portal to all federal, state and local government web resources and services.